sensor_id;sensor_type;location;lat;lon;timestamp;temperature;humidity
20174;DHT22;10246;50.620;7.232;2024-02-15T00:02:04;12.30;36.40
20174;DHT22;10246;50.620;7.232;2024-02-15T00:04:31;12.30;36.10
20174;DHT22;10246;50.620;7.232;2024-02-15T00:06:59;12.40;36.30
20174;DHT22;10246;50.620;7.232;2024-02-15T00:09:28;12.30;36.50
20174;DHT22;10246;50.620;7.232;2024-02-15T00:11:56;12.40;36.90
20174;DHT22;10246;50.620;7.232;2024-02-15T00:14:22;12.30;36.50
20174;DHT22;10246;50.620;7.232;2024-02-15T00:16:49;12.30;37.00
20174;DHT22;10246;50.620;7.232;2024-02-15T00:19:16;12.30;37.90
20174;DHT22;10246;50.620;7.232;2024-02-15T00:21:43;12.20;37.00
20174;DHT22;10246;50.620;7.232;2024-02-15T00:24:10;12.30;37.40
20174;DHT22;10246;50.620;7.232;2024-02-15T00:26:38;12.40;37.20
20174;DHT22;10246;50.620;7.232;2024-02-15T00:29:05;12.50;36.80
20174;DHT22;10246;50.620;7.232;2024-02-15T00:31:32;12.50;36.00
20174;DHT22;10246;50.620;7.232;2024-02-15T00:33:58;12.40;35.90
20174;DHT22;10246;50.620;7.232;2024-02-15T00:36:27;12.30;36.90
20174;DHT22;10246;50.620;7.232;2024-02-15T00:38:55;12.40;36.80
20174;DHT22;10246;50.620;7.232;2024-02-15T00:41:22;12.40;37.00
20174;DHT22;10246;50.620;7.232;2024-02-15T00:43:50;12.30;37.10
20174;DHT22;10246;50.620;7.232;2024-02-15T00:46:16;12.30;37.00
20174;DHT22;10246;50.620;7.232;2024-02-15T00:48:43;12.30;37.00
20174;DHT22;10246;50.620;7.232;2024-02-15T00:51:10;12.30;37.70
20174;DHT22;10246;50.620;7.232;2024-02-15T00:53:37;12.30;37.70
20174;DHT22;10246;50.620;7.232;2024-02-15T00:56:04;12.20;37.50
20174;DHT22;10246;50.620;7.232;2024-02-15T00:58:31;12.20;38.10
20174;DHT22;10246;50.620;7.232;2024-02-15T01:00:59;12.20;38.20
20174;DHT22;10246;50.620;7.232;2024-02-15T01:03:26;12.30;38.00
20174;DHT22;10246;50.620;7.232;2024-02-15T01:05:53;12.30;37.70
20174;DHT22;10246;50.620;7.232;2024-02-15T01:08:19;12.40;37.40
20174;DHT22;10246;50.620;7.232;2024-02-15T01:10:46;12.20;37.30
20174;DHT22;10246;50.620;7.232;2024-02-15T01:13:13;12.10;38.30
20174;DHT22;10246;50.620;7.232;2024-02-15T01:15:40;12.10;38.70
20174;DHT22;10246;50.620;7.232;2024-02-15T01:18:08;12.10;39.10
20174;DHT22;10246;50.620;7.232;2024-02-15T01:20:34;12.00;39.70
20174;DHT22;10246;50.620;7.232;2024-02-15T01:23:01;12.10;40.70
20174;DHT22;10246;50.620;7.232;2024-02-15T01:25:28;12.10;40.70
20174;DHT22;10246;50.620;7.232;2024-02-15T01:27:55;12.20;40.00
20174;DHT22;10246;50.620;7.232;2024-02-15T01:30:22;12.20;39.30
20174;DHT22;10246;50.620;7.232;2024-02-15T01:32:49;12.10;39.40
20174;DHT22;10246;50.620;7.232;2024-02-15T01:35:17;12.10;40.10
20174;DHT22;10246;50.620;7.232;2024-02-15T01:37:44;12.10;40.20
20174;DHT22;10246;50.620;7.232;2024-02-15T01:40:11;12.20;40.10
20174;DHT22;10246;50.620;7.232;2024-02-15T01:42:38;12.20;39.00
20174;DHT22;10246;50.620;7.232;2024-02-15T01:45:06;12.20;39.40
20174;DHT22;10246;50.620;7.232;2024-02-15T01:47:33;12.20;39.00
20174;DHT22;10246;50.620;7.232;2024-02-15T01:49:59;12.10;39.50
20174;DHT22;10246;50.620;7.232;2024-02-15T01:52:28;12.10;40.10
20174;DHT22;10246;50.620;7.232;2024-02-15T01:54:55;12.10;39.10
20174;DHT22;10246;50.620;7.232;2024-02-15T01:57:23;12.10;39.20
20174;DHT22;10246;50.620;7.232;2024-02-15T01:59:50;12.20;39.10
20174;DHT22;10246;50.620;7.232;2024-02-15T02:02:19;12.30;38.00
20174;DHT22;10246;50.620;7.232;2024-02-15T02:04:47;12.40;36.20
20174;DHT22;10246;50.620;7.232;2024-02-15T02:07:14;12.40;35.60
20174;DHT22;10246;50.620;7.232;2024-02-15T02:09:42;12.40;36.20
20174;DHT22;10246;50.620;7.232;2024-02-15T02:12:11;12.40;36.70
20174;DHT22;10246;50.620;7.232;2024-02-15T02:14:38;12.30;37.10
20174;DHT22;10246;50.620;7.232;2024-02-15T02:17:12;12.40;37.10
20174;DHT22;10246;50.620;7.232;2024-02-15T02:19:39;12.40;36.70
20174;DHT22;10246;50.620;7.232;2024-02-15T02:22:07;12.30;36.50
20174;DHT22;10246;50.620;7.232;2024-02-15T02:24:44;12.40;37.20
20174;DHT22;10246;50.620;7.232;2024-02-15T02:27:15;12.40;36.70
20174;DHT22;10246;50.620;7.232;2024-02-15T02:29:43;12.30;36.70
20174;DHT22;10246;50.620;7.232;2024-02-15T02:32:12;12.30;37.20
20174;DHT22;10246;50.620;7.232;2024-02-15T02:34:38;12.20;37.60
20174;DHT22;10246;50.620;7.232;2024-02-15T02:37:06;12.20;38.00
20174;DHT22;10246;50.620;7.232;2024-02-15T02:39:33;12.20;38.10
20174;DHT22;10246;50.620;7.232;2024-02-15T02:42:00;12.20;38.20
20174;DHT22;10246;50.620;7.232;2024-02-15T02:44:28;12.20;37.90
20174;DHT22;10246;50.620;7.232;2024-02-15T02:46:55;12.10;38.60
20174;DHT22;10246;50.620;7.232;2024-02-15T02:49:21;12.20;38.50
20174;DHT22;10246;50.620;7.232;2024-02-15T02:51:48;12.10;39.00
20174;DHT22;10246;50.620;7.232;2024-02-15T02:54:15;12.20;38.80
20174;DHT22;10246;50.620;7.232;2024-02-15T02:56:42;12.20;37.90
20174;DHT22;10246;50.620;7.232;2024-02-15T02:59:10;12.20;39.00
20174;DHT22;10246;50.620;7.232;2024-02-15T03:01:39;12.20;38.40
20174;DHT22;10246;50.620;7.232;2024-02-15T03:04:07;12.20;37.90
20174;DHT22;10246;50.620;7.232;2024-02-15T03:06:33;12.20;37.90
20174;DHT22;10246;50.620;7.232;2024-02-15T03:09:01;12.20;37.90
20174;DHT22;10246;50.620;7.232;2024-02-15T03:11:32;12.20;37.90
20174;DHT22;10246;50.620;7.232;2024-02-15T03:13:59;12.10;38.80
20174;DHT22;10246;50.620;7.232;2024-02-15T03:16:26;12.10;39.30
20174;DHT22;10246;50.620;7.232;2024-02-15T03:18:54;12.10;39.40
20174;DHT22;10246;50.620;7.232;2024-02-15T03:21:20;12.10;39.00
20174;DHT22;10246;50.620;7.232;2024-02-15T03:23:47;12.10;38.90
20174;DHT22;10246;50.620;7.232;2024-02-15T03:26:14;12.10;38.60
20174;DHT22;10246;50.620;7.232;2024-02-15T03:28:40;12.30;37.90
20174;DHT22;10246;50.620;7.232;2024-02-15T03:31:08;12.40;36.70
20174;DHT22;10246;50.620;7.232;2024-02-15T03:33:35;12.40;35.70
20174;DHT22;10246;50.620;7.232;2024-02-15T03:36:05;12.40;35.50
20174;DHT22;10246;50.620;7.232;2024-02-15T03:38:31;12.40;35.60
20174;DHT22;10246;50.620;7.232;2024-02-15T03:40:58;12.30;35.60
20174;DHT22;10246;50.620;7.232;2024-02-15T03:43:25;12.40;36.20
20174;DHT22;10246;50.620;7.232;2024-02-15T03:45:52;12.30;35.70
20174;DHT22;10246;50.620;7.232;2024-02-15T03:48:18;12.30;35.90
20174;DHT22;10246;50.620;7.232;2024-02-15T03:50:45;12.40;35.70
20174;DHT22;10246;50.620;7.232;2024-02-15T03:53:15;12.40;35.40
20174;DHT22;10246;50.620;7.232;2024-02-15T03:55:41;12.40;35.40
20174;DHT22;10246;50.620;7.232;2024-02-15T03:58:08;12.40;35.70
20174;DHT22;10246;50.620;7.232;2024-02-15T04:00:35;12.40;35.60
20174;DHT22;10246;50.620;7.232;2024-02-15T04:03:03;12.50;35.30
20174;DHT22;10246;50.620;7.232;2024-02-15T04:05:30;12.50;35.20
20174;DHT22;10246;50.620;7.232;2024-02-15T04:07:58;12.50;35.30
20174;DHT22;10246;50.620;7.232;2024-02-15T04:10:29;12.60;34.50
20174;DHT22;10246;50.620;7.232;2024-02-15T04:12:55;12.60;33.80
20174;DHT22;10246;50.620;7.232;2024-02-15T04:15:23;12.70;33.60
20174;DHT22;10246;50.620;7.232;2024-02-15T04:17:50;12.70;33.10
20174;DHT22;10246;50.620;7.232;2024-02-15T04:20:21;12.70;32.60
20174;DHT22;10246;50.620;7.232;2024-02-15T04:22:48;12.80;31.80
20174;DHT22;10246;50.620;7.232;2024-02-15T04:25:16;12.80;31.60
20174;DHT22;10246;50.620;7.232;2024-02-15T04:27:44;12.80;31.10
20174;DHT22;10246;50.620;7.232;2024-02-15T04:30:12;12.80;30.50
20174;DHT22;10246;50.620;7.232;2024-02-15T04:32:40;12.80;30.20
20174;DHT22;10246;50.620;7.232;2024-02-15T04:35:07;12.80;30.10
20174;DHT22;10246;50.620;7.232;2024-02-15T04:37:35;12.80;30.40
20174;DHT22;10246;50.620;7.232;2024-02-15T04:40:03;12.80;30.10
20174;DHT22;10246;50.620;7.232;2024-02-15T04:42:34;12.80;30.00
20174;DHT22;10246;50.620;7.232;2024-02-15T04:45:04;12.80;30.10
20174;DHT22;10246;50.620;7.232;2024-02-15T04:47:33;12.80;30.50
20174;DHT22;10246;50.620;7.232;2024-02-15T04:50:00;12.70;30.50
20174;DHT22;10246;50.620;7.232;2024-02-15T04:52:28;12.80;30.70
20174;DHT22;10246;50.620;7.232;2024-02-15T04:54:55;12.70;30.80
20174;DHT22;10246;50.620;7.232;2024-02-15T04:57:23;12.70;31.00
20174;DHT22;10246;50.620;7.232;2024-02-15T04:59:51;12.80;31.40
20174;DHT22;10246;50.620;7.232;2024-02-15T05:02:19;12.70;30.90
20174;DHT22;10246;50.620;7.232;2024-02-15T05:04:47;12.70;31.40
20174;DHT22;10246;50.620;7.232;2024-02-15T05:07:14;12.70;31.90
20174;DHT22;10246;50.620;7.232;2024-02-15T05:09:42;12.80;32.20
20174;DHT22;10246;50.620;7.232;2024-02-15T05:12:09;12.70;31.50
20174;DHT22;10246;50.620;7.232;2024-02-15T05:14:36;12.80;31.40
20174;DHT22;10246;50.620;7.232;2024-02-15T05:17:03;12.80;31.10
20174;DHT22;10246;50.620;7.232;2024-02-15T05:19:33;12.80;30.00
20174;DHT22;10246;50.620;7.232;2024-02-15T05:22:01;12.80;29.80
20174;DHT22;10246;50.620;7.232;2024-02-15T05:24:30;12.80;29.90
20174;DHT22;10246;50.620;7.232;2024-02-15T05:26:57;12.80;30.10
20174;DHT22;10246;50.620;7.232;2024-02-15T05:29:24;12.80;29.70
20174;DHT22;10246;50.620;7.232;2024-02-15T05:31:51;12.80;29.40
20174;DHT22;10246;50.620;7.232;2024-02-15T05:34:20;12.80;29.80
20174;DHT22;10246;50.620;7.232;2024-02-15T05:36:48;12.80;29.60
20174;DHT22;10246;50.620;7.232;2024-02-15T05:39:14;12.80;29.70
20174;DHT22;10246;50.620;7.232;2024-02-15T05:41:44;12.80;29.50
20174;DHT22;10246;50.620;7.232;2024-02-15T05:44:10;12.80;29.10
20174;DHT22;10246;50.620;7.232;2024-02-15T05:46:37;12.80;28.80
20174;DHT22;10246;50.620;7.232;2024-02-15T05:49:05;12.80;28.80
20174;DHT22;10246;50.620;7.232;2024-02-15T05:51:33;12.80;28.60
20174;DHT22;10246;50.620;7.232;2024-02-15T05:54:01;12.80;27.90
20174;DHT22;10246;50.620;7.232;2024-02-15T05:56:28;12.80;28.00
20174;DHT22;10246;50.620;7.232;2024-02-15T05:58:55;12.80;27.90
20174;DHT22;10246;50.620;7.232;2024-02-15T06:01:22;12.80;28.00
20174;DHT22;10246;50.620;7.232;2024-02-15T06:03:49;12.80;28.30
20174;DHT22;10246;50.620;7.232;2024-02-15T06:06:20;12.80;28.10
20174;DHT22;10246;50.620;7.232;2024-02-15T06:08:47;12.80;28.40
20174;DHT22;10246;50.620;7.232;2024-02-15T06:11:19;12.80;28.70
20174;DHT22;10246;50.620;7.232;2024-02-15T06:13:46;12.80;28.30
20174;DHT22;10246;50.620;7.232;2024-02-15T06:16:13;12.80;27.80
20174;DHT22;10246;50.620;7.232;2024-02-15T06:18:40;12.80;27.70
20174;DHT22;10246;50.620;7.232;2024-02-15T06:21:06;12.80;28.40
20174;DHT22;10246;50.620;7.232;2024-02-15T06:23:34;12.70;28.60
20174;DHT22;10246;50.620;7.232;2024-02-15T06:26:01;12.80;28.70
20174;DHT22;10246;50.620;7.232;2024-02-15T06:28:29;12.80;28.60
20174;DHT22;10246;50.620;7.232;2024-02-15T06:31:14;12.80;28.90
20174;DHT22;10246;50.620;7.232;2024-02-15T06:33:59;12.70;28.80
20174;DHT22;10246;50.620;7.232;2024-02-15T06:36:50;12.70;28.70
20174;DHT22;10246;50.620;7.232;2024-02-15T06:39:34;12.80;28.70
20174;DHT22;10246;50.620;7.232;2024-02-15T06:42:06;12.70;28.60
20174;DHT22;10246;50.620;7.232;2024-02-15T06:44:34;12.70;29.00
20174;DHT22;10246;50.620;7.232;2024-02-15T06:47:01;12.80;28.70
20174;DHT22;10246;50.620;7.232;2024-02-15T06:49:28;12.80;28.50
20174;DHT22;10246;50.620;7.232;2024-02-15T06:51:54;12.80;29.20
20174;DHT22;10246;50.620;7.232;2024-02-15T06:54:21;12.70;28.60
20174;DHT22;10246;50.620;7.232;2024-02-15T06:56:49;12.80;28.40
20174;DHT22;10246;50.620;7.232;2024-02-15T06:59:17;12.80;28.30
20174;DHT22;10246;50.620;7.232;2024-02-15T07:01:46;12.80;28.20
20174;DHT22;10246;50.620;7.232;2024-02-15T07:04:13;12.80;28.00
20174;DHT22;10246;50.620;7.232;2024-02-15T07:06:39;12.80;27.30
20174;DHT22;10246;50.620;7.232;2024-02-15T07:09:10;12.80;27.70
20174;DHT22;10246;50.620;7.232;2024-02-15T07:11:37;12.80;27.90
20174;DHT22;10246;50.620;7.232;2024-02-15T07:14:04;12.80;27.30
20174;DHT22;10246;50.620;7.232;2024-02-15T07:16:32;12.80;27.50
20174;DHT22;10246;50.620;7.232;2024-02-15T07:19:01;12.90;27.40
20174;DHT22;10246;50.620;7.232;2024-02-15T07:21:28;12.90;27.40
20174;DHT22;10246;50.620;7.232;2024-02-15T07:23:57;12.90;27.40
20174;DHT22;10246;50.620;7.232;2024-02-15T07:26:24;12.90;27.40
20174;DHT22;10246;50.620;7.232;2024-02-15T07:28:51;12.90;27.40
20174;DHT22;10246;50.620;7.232;2024-02-15T07:31:19;12.90;27.40
20174;DHT22;10246;50.620;7.232;2024-02-15T07:33:47;13.00;27.10
20174;DHT22;10246;50.620;7.232;2024-02-15T07:36:18;13.00;26.90
20174;DHT22;10246;50.620;7.232;2024-02-15T07:38:44;13.00;27.00
20174;DHT22;10246;50.620;7.232;2024-02-15T07:41:14;13.00;27.00
20174;DHT22;10246;50.620;7.232;2024-02-15T07:43:41;13.00;26.90
20174;DHT22;10246;50.620;7.232;2024-02-15T07:46:11;13.00;26.40
20174;DHT22;10246;50.620;7.232;2024-02-15T07:48:38;13.10;26.40
20174;DHT22;10246;50.620;7.232;2024-02-15T07:51:09;13.10;26.30
20174;DHT22;10246;50.620;7.232;2024-02-15T07:53:39;13.10;26.20
20174;DHT22;10246;50.620;7.232;2024-02-15T07:56:06;13.10;25.90
20174;DHT22;10246;50.620;7.232;2024-02-15T07:58:33;13.10;25.30
20174;DHT22;10246;50.620;7.232;2024-02-15T08:01:00;13.20;25.20
20174;DHT22;10246;50.620;7.232;2024-02-15T08:03:27;13.20;25.10
20174;DHT22;10246;50.620;7.232;2024-02-15T08:05:55;13.20;24.90
20174;DHT22;10246;50.620;7.232;2024-02-15T08:08:22;13.10;25.10
20174;DHT22;10246;50.620;7.232;2024-02-15T08:10:50;13.20;25.30
20174;DHT22;10246;50.620;7.232;2024-02-15T08:13:18;13.20;24.60
20174;DHT22;10246;50.620;7.232;2024-02-15T08:15:48;13.30;24.20
20174;DHT22;10246;50.620;7.232;2024-02-15T08:18:18;13.30;24.80
20174;DHT22;10246;50.620;7.232;2024-02-15T08:20:45;13.30;25.50
20174;DHT22;10246;50.620;7.232;2024-02-15T08:23:12;13.30;25.10
20174;DHT22;10246;50.620;7.232;2024-02-15T08:25:39;13.30;24.60
20174;DHT22;10246;50.620;7.232;2024-02-15T08:28:08;13.30;24.50
20174;DHT22;10246;50.620;7.232;2024-02-15T08:30:36;13.40;25.20
20174;DHT22;10246;50.620;7.232;2024-02-15T08:33:04;13.40;25.10
20174;DHT22;10246;50.620;7.232;2024-02-15T08:35:30;13.40;25.30
20174;DHT22;10246;50.620;7.232;2024-02-15T08:37:58;13.50;24.50
20174;DHT22;10246;50.620;7.232;2024-02-15T08:40:24;13.50;24.70
20174;DHT22;10246;50.620;7.232;2024-02-15T08:42:51;13.50;24.80
20174;DHT22;10246;50.620;7.232;2024-02-15T08:45:19;13.50;23.90
20174;DHT22;10246;50.620;7.232;2024-02-15T08:47:46;13.60;23.70
20174;DHT22;10246;50.620;7.232;2024-02-15T08:50:15;13.50;23.50
20174;DHT22;10246;50.620;7.232;2024-02-15T08:52:42;13.50;23.00
20174;DHT22;10246;50.620;7.232;2024-02-15T08:55:10;13.60;23.40
20174;DHT22;10246;50.620;7.232;2024-02-15T08:57:40;13.60;22.70
20174;DHT22;10246;50.620;7.232;2024-02-15T09:00:10;13.60;21.50
20174;DHT22;10246;50.620;7.232;2024-02-15T09:02:40;13.60;21.10
20174;DHT22;10246;50.620;7.232;2024-02-15T09:05:07;13.70;20.60
20174;DHT22;10246;50.620;7.232;2024-02-15T09:07:33;13.60;20.20
20174;DHT22;10246;50.620;7.232;2024-02-15T09:10:01;13.70;19.90
20174;DHT22;10246;50.620;7.232;2024-02-15T09:12:28;13.60;19.40
20174;DHT22;10246;50.620;7.232;2024-02-15T09:14:56;13.60;19.00
20174;DHT22;10246;50.620;7.232;2024-02-15T09:17:23;13.60;20.10
20174;DHT22;10246;50.620;7.232;2024-02-15T09:19:53;13.60;19.00
20174;DHT22;10246;50.620;7.232;2024-02-15T09:22:20;13.60;19.10
20174;DHT22;10246;50.620;7.232;2024-02-15T09:24:46;13.60;18.50
20174;DHT22;10246;50.620;7.232;2024-02-15T09:27:13;13.60;18.50
20174;DHT22;10246;50.620;7.232;2024-02-15T09:29:40;13.60;18.90
20174;DHT22;10246;50.620;7.232;2024-02-15T09:32:08;13.60;17.10
20174;DHT22;10246;50.620;7.232;2024-02-15T09:34:34;13.70;17.80
20174;DHT22;10246;50.620;7.232;2024-02-15T09:37:03;13.70;17.80
20174;DHT22;10246;50.620;7.232;2024-02-15T09:39:30;13.80;17.80
20174;DHT22;10246;50.620;7.232;2024-02-15T09:41:57;13.80;17.10
20174;DHT22;10246;50.620;7.232;2024-02-15T09:44:24;13.90;16.80
20174;DHT22;10246;50.620;7.232;2024-02-15T09:47:02;14.00;15.90
20174;DHT22;10246;50.620;7.232;2024-02-15T09:49:32;14.10;15.70
20174;DHT22;10246;50.620;7.232;2024-02-15T09:52:04;14.10;15.00
20174;DHT22;10246;50.620;7.232;2024-02-15T09:54:32;14.10;15.00
20174;DHT22;10246;50.620;7.232;2024-02-15T09:57:01;14.20;15.10
20174;DHT22;10246;50.620;7.232;2024-02-15T09:59:29;14.30;14.50
20174;DHT22;10246;50.620;7.232;2024-02-15T10:01:58;14.30;12.70
20174;DHT22;10246;50.620;7.232;2024-02-15T10:04:25;14.40;13.30
20174;DHT22;10246;50.620;7.232;2024-02-15T10:06:52;14.30;12.60
20174;DHT22;10246;50.620;7.232;2024-02-15T10:09:28;14.40;12.20
20174;DHT22;10246;50.620;7.232;2024-02-15T10:11:55;14.50;11.20
20174;DHT22;10246;50.620;7.232;2024-02-15T10:14:23;14.50;10.70
20174;DHT22;10246;50.620;7.232;2024-02-15T10:16:52;14.70;11.00
20174;DHT22;10246;50.620;7.232;2024-02-15T10:19:23;14.80;11.00
20174;DHT22;10246;50.620;7.232;2024-02-15T10:21:52;14.90;9.90
20174;DHT22;10246;50.620;7.232;2024-02-15T10:24:22;14.90;9.30
20174;DHT22;10246;50.620;7.232;2024-02-15T10:26:51;14.90;9.00
20174;DHT22;10246;50.620;7.232;2024-02-15T10:29:19;15.00;9.30
20174;DHT22;10246;50.620;7.232;2024-02-15T10:31:54;15.00;8.00
20174;DHT22;10246;50.620;7.232;2024-02-15T10:34:21;15.00;7.80
20174;DHT22;10246;50.620;7.232;2024-02-15T10:36:48;15.10;7.50
20174;DHT22;10246;50.620;7.232;2024-02-15T10:39:16;15.10;6.90
20174;DHT22;10246;50.620;7.232;2024-02-15T10:41:45;15.20;7.30
20174;DHT22;10246;50.620;7.232;2024-02-15T10:44:18;15.30;5.80
20174;DHT22;10246;50.620;7.232;2024-02-15T10:46:46;15.30;6.40
20174;DHT22;10246;50.620;7.232;2024-02-15T10:49:18;15.40;6.20
20174;DHT22;10246;50.620;7.232;2024-02-15T10:51:49;15.50;4.90
20174;DHT22;10246;50.620;7.232;2024-02-15T10:54:40;15.50;3.90
20174;DHT22;10246;50.620;7.232;2024-02-15T10:57:09;15.50;3.50
20174;DHT22;10246;50.620;7.232;2024-02-15T10:59:38;15.60;4.00
20174;DHT22;10246;50.620;7.232;2024-02-15T11:02:23;15.60;3.10
20174;DHT22;10246;50.620;7.232;2024-02-15T11:04:52;15.50;2.90
20174;DHT22;10246;50.620;7.232;2024-02-15T11:07:22;15.50;2.60
20174;DHT22;10246;50.620;7.232;2024-02-15T11:09:49;15.50;3.10
20174;DHT22;10246;50.620;7.232;2024-02-15T11:12:17;15.50;3.30
20174;DHT22;10246;50.620;7.232;2024-02-15T11:14:45;15.50;3.40
20174;DHT22;10246;50.620;7.232;2024-02-15T11:17:45;15.50;3.50
20174;DHT22;10246;50.620;7.232;2024-02-15T11:20:45;15.50;2.10
20174;DHT22;10246;50.620;7.232;2024-02-15T11:23:23;15.50;3.20
20174;DHT22;10246;50.620;7.232;2024-02-15T11:25:50;15.50;3.00
20174;DHT22;10246;50.620;7.232;2024-02-15T11:28:36;15.60;2.20
20174;DHT22;10246;50.620;7.232;2024-02-15T11:31:07;15.60;2.80
20174;DHT22;10246;50.620;7.232;2024-02-15T11:33:35;15.70;2.80
20174;DHT22;10246;50.620;7.232;2024-02-15T11:36:03;15.80;2.30
20174;DHT22;10246;50.620;7.232;2024-02-15T11:38:31;15.90;2.40
20174;DHT22;10246;50.620;7.232;2024-02-15T11:41:02;16.00;2.40
20174;DHT22;10246;50.620;7.232;2024-02-15T11:43:49;16.00;1.00
20174;DHT22;10246;50.620;7.232;2024-02-15T11:46:22;16.00;1.30
20174;DHT22;10246;50.620;7.232;2024-02-15T11:48:52;16.00;1.00
20174;DHT22;10246;50.620;7.232;2024-02-15T11:51:30;16.00;1.00
20174;DHT22;10246;50.620;7.232;2024-02-15T11:54:05;16.00;1.00
20174;DHT22;10246;50.620;7.232;2024-02-15T11:56:50;16.10;1.00
20174;DHT22;10246;50.620;7.232;2024-02-15T11:59:20;16.10;1.00
20174;DHT22;10246;50.620;7.232;2024-02-15T12:01:58;16.10;1.00
20174;DHT22;10246;50.620;7.232;2024-02-15T12:04:43;16.10;1.00
20174;DHT22;10246;50.620;7.232;2024-02-15T12:07:28;16.10;1.00
20174;DHT22;10246;50.620;7.232;2024-02-15T12:10:16;16.10;1.00
20174;DHT22;10246;50.620;7.232;2024-02-15T12:13:01;16.20;1.00
20174;DHT22;10246;50.620;7.232;2024-02-15T12:15:56;16.20;1.00
20174;DHT22;10246;50.620;7.232;2024-02-15T12:18:42;16.20;1.00
20174;DHT22;10246;50.620;7.232;2024-02-15T12:21:13;16.40;1.00
20174;DHT22;10246;50.620;7.232;2024-02-15T12:23:41;16.40;1.00
20174;DHT22;10246;50.620;7.232;2024-02-15T12:26:08;16.50;1.00
20174;DHT22;10246;50.620;7.232;2024-02-15T12:28:35;16.50;1.00
20174;DHT22;10246;50.620;7.232;2024-02-15T12:31:02;16.50;1.00
20174;DHT22;10246;50.620;7.232;2024-02-15T12:33:32;16.60;1.00
20174;DHT22;10246;50.620;7.232;2024-02-15T12:36:08;16.70;1.00
20174;DHT22;10246;50.620;7.232;2024-02-15T12:38:35;16.80;1.00
20174;DHT22;10246;50.620;7.232;2024-02-15T12:41:04;16.80;1.00
20174;DHT22;10246;50.620;7.232;2024-02-15T12:43:43;16.90;1.00
20174;DHT22;10246;50.620;7.232;2024-02-15T12:46:10;17.00;1.00
20174;DHT22;10246;50.620;7.232;2024-02-15T12:48:38;17.00;1.00
20174;DHT22;10246;50.620;7.232;2024-02-15T12:51:14;17.20;1.00
20174;DHT22;10246;50.620;7.232;2024-02-15T12:53:41;17.10;1.00
20174;DHT22;10246;50.620;7.232;2024-02-15T12:56:08;17.20;1.00
20174;DHT22;10246;50.620;7.232;2024-02-15T12:58:35;17.30;1.00
20174;DHT22;10246;50.620;7.232;2024-02-15T13:01:02;17.30;1.00
20174;DHT22;10246;50.620;7.232;2024-02-15T13:03:29;17.30;1.00
20174;DHT22;10246;50.620;7.232;2024-02-15T13:05:56;17.30;1.00
20174;DHT22;10246;50.620;7.232;2024-02-15T13:08:25;17.40;1.00
20174;DHT22;10246;50.620;7.232;2024-02-15T13:10:51;17.40;1.00
20174;DHT22;10246;50.620;7.232;2024-02-15T13:13:18;17.40;1.00
20174;DHT22;10246;50.620;7.232;2024-02-15T13:15:46;17.40;1.00
20174;DHT22;10246;50.620;7.232;2024-02-15T13:18:13;17.40;1.00
20174;DHT22;10246;50.620;7.232;2024-02-15T13:20:40;17.40;1.00
20174;DHT22;10246;50.620;7.232;2024-02-15T13:23:08;17.40;1.00
20174;DHT22;10246;50.620;7.232;2024-02-15T13:25:38;17.40;1.00
20174;DHT22;10246;50.620;7.232;2024-02-15T13:28:06;17.40;1.00
20174;DHT22;10246;50.620;7.232;2024-02-15T13:30:34;17.30;1.00
20174;DHT22;10246;50.620;7.232;2024-02-15T13:33:01;17.30;1.00
20174;DHT22;10246;50.620;7.232;2024-02-15T13:35:28;17.20;1.00
20174;DHT22;10246;50.620;7.232;2024-02-15T13:37:55;17.20;1.00
20174;DHT22;10246;50.620;7.232;2024-02-15T13:40:23;17.20;1.00
20174;DHT22;10246;50.620;7.232;2024-02-15T13:42:54;17.20;1.00
20174;DHT22;10246;50.620;7.232;2024-02-15T13:45:26;17.10;1.00
20174;DHT22;10246;50.620;7.232;2024-02-15T13:47:56;17.10;1.00
20174;DHT22;10246;50.620;7.232;2024-02-15T13:50:23;17.00;1.00
20174;DHT22;10246;50.620;7.232;2024-02-15T13:52:50;17.00;1.00
20174;DHT22;10246;50.620;7.232;2024-02-15T13:55:18;17.10;1.00
20174;DHT22;10246;50.620;7.232;2024-02-15T13:57:46;17.10;1.00
20174;DHT22;10246;50.620;7.232;2024-02-15T14:00:15;17.10;1.00
20174;DHT22;10246;50.620;7.232;2024-02-15T14:02:48;17.10;1.00
20174;DHT22;10246;50.620;7.232;2024-02-15T14:05:15;17.00;1.00
20174;DHT22;10246;50.620;7.232;2024-02-15T14:07:48;17.10;1.00
20174;DHT22;10246;50.620;7.232;2024-02-15T14:10:16;17.10;1.00
20174;DHT22;10246;50.620;7.232;2024-02-15T14:12:46;17.10;1.00
20174;DHT22;10246;50.620;7.232;2024-02-15T14:15:15;17.10;1.00
20174;DHT22;10246;50.620;7.232;2024-02-15T14:17:42;17.10;1.00
20174;DHT22;10246;50.620;7.232;2024-02-15T14:20:10;17.10;1.00
20174;DHT22;10246;50.620;7.232;2024-02-15T14:22:39;17.10;1.00
20174;DHT22;10246;50.620;7.232;2024-02-15T14:25:06;17.10;1.00
20174;DHT22;10246;50.620;7.232;2024-02-15T14:27:33;17.20;1.00
20174;DHT22;10246;50.620;7.232;2024-02-15T14:30:00;17.10;1.00
20174;DHT22;10246;50.620;7.232;2024-02-15T14:32:46;17.00;1.00
20174;DHT22;10246;50.620;7.232;2024-02-15T14:35:31;17.10;1.00
20174;DHT22;10246;50.620;7.232;2024-02-15T14:38:00;17.10;1.00
20174;DHT22;10246;50.620;7.232;2024-02-15T14:40:31;17.00;1.00
20174;DHT22;10246;50.620;7.232;2024-02-15T14:42:58;17.00;1.00
20174;DHT22;10246;50.620;7.232;2024-02-15T14:45:25;17.00;1.00
20174;DHT22;10246;50.620;7.232;2024-02-15T14:47:53;17.00;1.00
20174;DHT22;10246;50.620;7.232;2024-02-15T14:50:20;17.00;1.00
20174;DHT22;10246;50.620;7.232;2024-02-15T14:52:49;17.00;1.00
20174;DHT22;10246;50.620;7.232;2024-02-15T14:55:17;17.10;1.00
20174;DHT22;10246;50.620;7.232;2024-02-15T14:57:44;17.00;1.00
20174;DHT22;10246;50.620;7.232;2024-02-15T15:00:12;17.00;1.00
20174;DHT22;10246;50.620;7.232;2024-02-15T15:02:42;17.00;1.00
20174;DHT22;10246;50.620;7.232;2024-02-15T15:05:10;17.00;1.00
20174;DHT22;10246;50.620;7.232;2024-02-15T15:07:54;16.90;1.00
20174;DHT22;10246;50.620;7.232;2024-02-15T15:10:38;16.80;1.00
20174;DHT22;10246;50.620;7.232;2024-02-15T15:13:23;16.80;1.00
20174;DHT22;10246;50.620;7.232;2024-02-15T15:15:49;16.80;1.00
20174;DHT22;10246;50.620;7.232;2024-02-15T15:18:16;16.80;1.00
20174;DHT22;10246;50.620;7.232;2024-02-15T15:20:45;16.70;1.00
20174;DHT22;10246;50.620;7.232;2024-02-15T15:23:12;16.60;1.00
20174;DHT22;10246;50.620;7.232;2024-02-15T15:25:39;16.60;1.00
20174;DHT22;10246;50.620;7.232;2024-02-15T15:28:06;16.60;1.00
20174;DHT22;10246;50.620;7.232;2024-02-15T15:30:32;16.60;1.00
20174;DHT22;10246;50.620;7.232;2024-02-15T15:32:59;16.50;1.00
20174;DHT22;10246;50.620;7.232;2024-02-15T15:35:26;16.50;1.00
20174;DHT22;10246;50.620;7.232;2024-02-15T15:37:57;16.40;1.00
20174;DHT22;10246;50.620;7.232;2024-02-15T15:40:24;16.40;1.00
20174;DHT22;10246;50.620;7.232;2024-02-15T15:42:51;16.40;1.00
20174;DHT22;10246;50.620;7.232;2024-02-15T15:45:20;16.40;1.00
20174;DHT22;10246;50.620;7.232;2024-02-15T15:47:47;16.30;1.00